EKVJ/STA METAR and TAF weather

Enter ICAO airport designator
Station Type Date Time Source
EKVJ METAR 2018/04/26 13:50 UTC NOAA

EKVJ 261350Z 25019KT 9999 FEW006 BKN008 10/08 Q1008


Station Type Date Time Source
EKVJ Decoded METAR 2018/04/26 13:50 UTC NOAA

Stauning Lufthavn, Denmark (EKVJ) 56-00N 008-21E 5M
Apr 26, 2018 - 09:50 AM EDT / 2018.04.26 1350 UTC
Wind: from the WSW (250 degrees) at 22 MPH (19 KT):0
Visibility: greater than 7 mile(s):0
Sky conditions: mostly cloudy
Temperature: 50 F (10 C)
Dew Point: 46 F (8 C)
Relative Humidity: 87%
Pressure (altimeter): 29.77 in. Hg (1008 hPa)
ob: EKVJ 261350Z 25019KT 9999 FEW006 BKN008 10/08 Q1008
cycle: 14

Station Type Date Time Source
EKVJ TAF UTC NOAA

Error!


Example: see airport list